LiveATC.Net - Listen to live air traffic control over the Internet!


ICAO: KMKC  IATA: MKC   Airport: Charles B. Wheeler Downtown Airport
City: Kansas City   State/Province: Missouri
Country: United States   Continent: North America
KMKC METAR Weather: KMKC 280254Z 33003KT 10SM CLR 21/14 A2987 RMK AO2 SLPNO T02060144 53004
KMKC Flight Activity (FlightAware)
KMKC Airport Info   (AirNav) (iFlightPlanner)
KMKC VFR Sectional Chart   (iFlightPlanner) 
KMKC IFR Low Chart   (iFlightPlanner) 
KMKC Gnd/Twr/App
Feed Status: DOWN
Last heard on: 2016-09-21 13:58:03 (6 days 13 hours 46 minutes ago)
KMKC Gnd/Twr/App Audio Archives
FacilityFrequency
Downtown Ground121.900
Downtown Tower133.300
Kansas City Approach118.400
Kansas City Approach118.900


NOTICE

Unauthorized use prohibited. See LiveATC.net Terms of Service


Find LiveATC Audio Streams


Airport/ARTCC Code

Frequency
(e.g., 124.400, 128.75)
Site-wide search

Browse LiveATC Feeds
LiveATC Coverage Map
Top 50 LiveATC Feeds
Bad Weather Areas

LiveATC FAQ
Offer a LiveATC Feed
Contact LiveATC.net
Press Inquiries

LiveATC on iPhone
LiveATC on Android

Windows Phone
Windows 8/10

LiveATC Mobile
(Mobile browser)

ATC Audio Archives
Interesting Recordings

LiveATC Forums


Home Page
About LiveATC.net
Make a Donation
LiveATC Store

Terms of Use
Privacy Policy

Canadian Air Freqs

AIRMETs/SIGMETs

FAA Airport Status
Nat'l Airspace Status
Arrival Demand Charts


Server Software By:
Icecast.org
Liquidsoap